Time;durP1;ratioP1;P1;durP2;ratioP2;P2;SDS_P1;SDS_P2;PMS_P1;PMS_P2;Temp;Humidity;BMP_temperature;BMP_pressure;BME280_temperature;BME280_humidity;BME280_pressure;Samples;Min_cycle;Max_cycle;Signal;HPM_P1;HPM_P2
2021/06/20 00:01:33;;;;;;;83.93;14.73;;;;;;;19.17;67.76;90590.63;4967397;28;20492;-87
2021/06/20 00:04:14;;;;;;;64.53;13.65;;;;;;;19.25;67.83;90602.63;5004059;28;20030;-87
2021/06/20 00:06:52;;;;;;;66.38;13.13;;;;;;;19.39;67.02;90591.22;5003445;28;20057;-86
2021/06/20 00:09:28;;;;;;;78.63;13.23;;;;;;;19.52;66.92;90599.44;4988427;28;20483;-86
2021/06/20 00:12:10;;;;;;;72.30;14.27;;;;;;;19.61;66.74;90599.75;5003762;28;20022;-85
2021/06/20 00:14:48;;;;;;;79.85;14.60;;;;;;;19.73;66.69;90588.69;4991599;28;20384;-86
2021/06/20 00:17:22;;;;;;;72.03;14.52;;;;;;;19.77;66.55;90584.13;5023800;28;20060;-87
2021/06/20 00:20:04;;;;;;;79.55;13.75;;;;;;;19.79;66.09;90581.09;4992107;28;20056;-86
2021/06/20 00:22:43;;;;;;;76.38;15.05;;;;;;;19.83;66.06;90594.28;5024481;28;20029;-86
2021/06/20 00:25:23;;;;;;;88.75;13.48;;;;;;;19.81;66.39;90599.94;5008603;28;20096;-85
2021/06/20 00:28:03;;;;;;;64.85;13.95;;;;;;;19.81;66.48;90589.38;5025857;28;20490;-86
2021/06/20 00:30:40;;;;;;;65.50;13.60;;;;;;;19.69;67.08;90579.31;5007995;28;20075;-87
2021/06/20 00:33:19;;;;;;;62.60;13.73;;;;;;;19.77;66.14;90584.13;5010355;28;20490;-86
2021/06/20 00:35:55;;;;;;;65.35;13.43;;;;;;;19.65;66.66;90581.97;5024951;28;20040;-87
2021/06/20 00:38:41;;;;;;;60.92;13.00;;;;;;;19.61;66.72;90575.94;5010111;28;20021;-86
2021/06/20 00:41:17;;;;;;;65.22;13.35;;;;;;;19.55;66.82;90583.53;5034541;28;20058;-85
2021/06/20 00:43:52;;;;;;;65.03;14.55;;;;;;;19.64;66.60;90587.66;5003332;28;20057;-85
2021/06/20 00:46:24;;;;;;;53.70;12.70;;;;;;;19.56;66.80;90594.84;5004274;28;20014;-86
2021/06/20 00:49:04;;;;;;;71.70;13.45;;;;;;;19.47;67.27;90602.47;4986767;28;20033;-85
2021/06/20 00:51:43;;;;;;;74.50;13.27;;;;;;;19.43;66.45;90604.41;5016777;28;20033;-85
2021/06/20 00:54:19;;;;;;;65.43;13.15;;;;;;;19.39;66.63;90604.41;5016683;28;20036;-83
2021/06/20 00:56:56;;;;;;;61.05;12.93;;;;;;;19.31;66.83;90610.91;5003086;28;20029;-86
2021/06/20 00:59:30;;;;;;;49.20;11.77;;;;;;;19.31;66.86;90602.97;4984778;28;20037;-85
2021/06/20 01:02:11;;;;;;;59.45;11.05;;;;;;;19.34;66.11;90605.59;5000923;28;20021;-85
2021/06/20 01:04:50;;;;;;;56.28;11.13;;;;;;;19.23;66.56;90609.47;4980932;28;20128;-85
2021/06/20 01:07:31;;;;;;;56.92;11.45;;;;;;;19.13;66.86;90600.47;5006745;28;20029;-85
2021/06/20 01:10:05;;;;;;;53.47;10.93;;;;;;;19.16;67.32;90615.53;4999752;28;20076;-85
2021/06/20 01:12:45;;;;;;;52.90;11.77;;;;;;;19.10;67.32;90603.88;4996810;28;20083;-85
2021/06/20 01:15:21;;;;;;;49.33;11.13;;;;;;;19.09;66.91;90600.50;4965562;28;20057;-85
2021/06/20 01:17:59;;;;;;;49.90;10.68;;;;;;;19.09;67.14;90602.38;4981457;28;20533;-85
2021/06/20 01:20:36;;;;;;;56.05;11.80;;;;;;;19.04;67.06;90603.53;4981004;28;20076;-85
2021/06/20 01:23:08;;;;;;;46.67;10.00;;;;;;;18.97;68.33;90616.78;4997355;28;20104;-85
2021/06/20 01:25:46;;;;;;;47.17;10.93;;;;;;;18.92;68.15;90625.09;4981633;28;20483;-85
2021/06/20 01:28:25;;;;;;;54.85;9.07;;;;;;;18.86;68.91;90631.91;4997276;28;20080;-85
2021/06/20 01:31:06;;;;;;;44.10;9.40;;;;;;;18.77;69.93;90631.59;4982624;28;20032;-84
2021/06/20 01:33:40;;;;;;;38.33;9.32;;;;;;;18.55;70.51;90641.44;4965053;28;20041;-85
2021/06/20 01:36:13;;;;;;;;;;;;;;;18.50;70.89;90644.50;4965166;28;20043;-86
2021/06/20 01:38:52;;;;;;;49.75;8.98;;;;;;;18.32;71.97;90631.38;4980539;28;20500;-84
2021/06/20 01:41:31;;;;;;;38.10;8.27;;;;;;;18.24;72.25;90619.34;4996854;28;20080;-84
2021/06/20 01:44:02;;;;;;;40.10;9.90;;;;;;;18.04;73.53;90609.22;4981619;28;20109;-85
2021/06/20 01:46:38;;;;;;;43.42;8.73;;;;;;;18.10;73.49;90614.84;4996765;28;20079;-86
2021/06/20 01:49:16;;;;;;;38.13;8.68;;;;;;;18.03;72.90;90606.97;4985453;28;20399;-84
2021/06/20 01:51:51;;;;;;;37.15;8.98;;;;;;;17.97;73.49;90632.22;4984454;28;20034;-85
2021/06/20 01:54:29;;;;;;;32.50;7.22;;;;;;;17.92;73.11;90649.91;5014902;28;20034;-85
2021/06/20 01:57:06;;;;;;;23.55;6.82;;;;;;;17.94;72.39;90654.06;5001335;28;20025;-86
2021/06/20 01:59:45;;;;;;;40.70;6.75;;;;;;;17.78;72.91;90657.09;4979552;28;20549;-85
2021/06/20 02:02:20;;;;;;;27.70;5.80;;;;;;;17.77;72.66;90653.69;4981437;28;20124;-84
2021/06/20 02:04:55;;;;;;;26.85;5.25;;;;;;;17.56;73.08;90649.16;4981184;28;20034;-86
2021/06/20 02:07:32;;;;;;;;;;;;;;;17.49;72.54;90658.94;5057986;23;20042;-83
2021/06/20 02:10:11;;;;;;;29.00;4.65;;;;;;;17.35;73.41;90683.38;5002448;28;19993;-84
2021/06/20 02:12:51;;;;;;;21.35;4.25;;;;;;;17.19;73.80;90681.09;4985361;28;20076;-83
2021/06/20 02:15:31;;;;;;;20.23;4.20;;;;;;;17.08;72.08;90683.72;5003385;28;20471;-83
2021/06/20 02:18:07;;;;;;;21.73;4.13;;;;;;;17.00;73.84;90669.03;4984260;28;20134;-83
2021/06/20 02:20:38;;;;;;;22.52;4.30;;;;;;;16.85;72.85;90656.94;4951664;28;20085;-83
2021/06/20 02:23:18;;;;;;;18.52;4.18;;;;;;;16.80;71.88;90665.22;4968872;28;20046;-83
2021/06/20 02:26:02;;;;;;;20.65;3.65;;;;;;;16.68;73.63;90653.88;4985889;28;20065;-86
2021/06/20 02:28:41;;;;;;;19.98;3.60;;;;;;;16.64;73.02;90653.13;4981982;28;20563;-87
2021/06/20 02:31:13;;;;;;;20.63;4.18;;;;;;;16.65;73.15;90670.41;4965347;28;20022;-86
2021/06/20 02:33:48;;;;;;;15.85;3.40;;;;;;;16.63;72.50;90675.28;4982026;28;20042;-83
2021/06/20 02:36:26;;;;;;;18.10;4.03;;;;;;;16.61;72.96;90682.78;4997410;28;20038;-83
2021/06/20 02:39:06;;;;;;;15.52;4.00;;;;;;;16.59;73.16;90698.19;4943265;28;20669;-83
2021/06/20 02:41:44;;;;;;;14.48;2.78;;;;;;;16.65;70.35;90682.81;4946400;28;20026;-83
2021/06/20 02:44:26;;;;;;;11.52;2.47;;;;;;;16.64;70.30;90676.03;4961133;28;20023;-84
2021/06/20 02:46:59;;;;;;;18.27;2.95;;;;;;;16.46;71.04;90654.91;4960284;28;20085;-83
2021/06/20 02:49:42;;;;;;;9.43;2.80;;;;;;;16.55;69.91;90657.97;4952396;28;20027;-85
2021/06/20 02:52:16;;;;;;;15.40;3.13;;;;;;;16.54;69.90;90672.25;4995860;28;20019;-84
2021/06/20 02:54:52;;;;;;;14.13;3.88;;;;;;;16.51;70.48;90685.38;4978411;28;20038;-84
2021/06/20 02:57:41;;;;;;;15.27;3.03;;;;;;;16.54;70.98;90695.91;4977508;28;20030;-83
2021/06/20 03:00:17;;;;;;;15.27;3.28;;;;;;;16.38;72.09;90684.94;4995714;28;20447;-84
2021/06/20 03:02:55;;;;;;;12.10;2.55;;;;;;;16.45;72.19;90672.56;4947355;28;20033;-85
2021/06/20 03:05:35;;;;;;;23.20;4.13;;;;;;;16.42;70.32;90672.56;4996437;28;20026;-84
2021/06/20 03:08:13;;;;;;;12.05;2.60;;;;;;;16.20;72.78;90685.59;4963967;28;20074;-84
2021/06/20 03:10:47;;;;;;;16.13;3.40;;;;;;;16.10;76.64;90699.44;4959681;28;20022;-85
2021/06/20 03:13:28;;;;;;;13.35;3.60;;;;;;;16.00;77.85;90697.47;4964428;28;20035;-84
2021/06/20 03:16:04;;;;;;;16.25;2.97;;;;;;;16.02;76.57;90682.88;4943378;28;20027;-84
2021/06/20 03:18:46;;;;;;;15.48;3.15;;;;;;;16.04;76.33;90666.72;4959685;28;20027;-84
2021/06/20 03:21:24;;;;;;;19.23;2.92;;;;;;;15.93;75.62;90661.41;4958857;28;20408;-84
2021/06/20 03:24:05;;;;;;;17.38;2.97;;;;;;;15.84;76.10;90660.22;4958164;28;20527;-84
2021/06/20 03:26:41;;;;;;;13.43;3.45;;;;;;;15.84;73.81;90641.84;4975750;28;20054;-85
2021/06/20 03:29:16;;;;;;;8.65;2.55;;;;;;;16.05;73.55;90646.47;4927843;28;20038;-84
2021/06/20 03:31:53;;;;;;;9.07;2.28;;;;;;;15.96;71.08;90641.53;4943282;28;20109;-84
2021/06/20 03:34:32;;;;;;;10.63;2.40;;;;;;;16.14;69.17;90629.22;4982694;28;20101;-84
2021/06/20 03:37:07;;;;;;;9.88;2.05;;;;;;;16.12;69.92;90628.09;4980513;28;20058;-84
2021/06/20 03:39:53;;;;;;;9.95;2.42;;;;;;;16.11;67.61;90618.69;4998741;28;20104;-84
2021/06/20 03:42:35;;;;;;;12.15;2.58;;;;;;;16.10;68.86;90623.19;4966158;28;20030;-84
2021/06/20 03:45:10;;;;;;;10.13;2.53;;;;;;;16.05;69.11;90615.69;4980142;28;20026;-84
2021/06/20 03:47:46;;;;;;;10.23;2.13;;;;;;;16.10;68.34;90625.84;4976584;28;20011;-85
2021/06/20 03:50:16;;;;;;;12.80;2.33;;;;;;;16.12;68.43;90636.00;4973421;28;20042;-86
2021/06/20 03:53:01;;;;;;;11.48;2.20;;;;;;;16.15;69.03;90636.00;4967678;28;20738;-84
2021/06/20 03:55:40;;;;;;;8.18;2.40;;;;;;;16.03;69.72;90633.69;4978923;28;20447;-84
2021/06/20 03:58:20;;;;;;;7.80;2.20;;;;;;;16.09;70.40;90629.59;4945569;28;20508;-84
2021/06/20 04:00:54;;;;;;;10.20;2.78;;;;;;;16.14;71.30;90629.22;4960533;28;20489;-85
2021/06/20 04:03:34;;;;;;;9.75;2.80;;;;;;;16.14;70.69;90626.59;4960800;28;20488;-86
2021/06/20 04:06:15;;;;;;;10.43;2.67;;;;;;;16.15;68.93;90620.25;4961105;28;20509;-85
2021/06/20 04:08:53;;;;;;;6.45;1.85;;;;;;;16.19;67.81;90626.25;4976569;28;20035;-84
2021/06/20 04:11:29;;;;;;;9.68;2.00;;;;;;;16.28;66.09;90625.16;4976268;28;20022;-84
2021/06/20 04:14:08;;;;;;;10.15;1.98;;;;;;;16.23;66.97;90621.78;4976165;28;20121;-84
2021/06/20 04:16:46;;;;;;;7.38;2.00;;;;;;;16.36;65.79;90618.81;4960437;28;20019;-85
2021/06/20 04:19:20;;;;;;;8.43;2.10;;;;;;;16.33;67.17;90624.81;4976004;28;20562;-84
2021/06/20 04:21:56;;;;;;;9.90;1.95;;;;;;;16.35;67.25;90619.94;4976206;28;20039;-84
2021/06/20 04:24:35;;;;;;;8.45;2.42;;;;;;;16.45;65.74;90621.84;4983075;28;20040;-84
2021/06/20 04:27:09;;;;;;;11.02;2.10;;;;;;;16.34;67.13;90613.94;4962237;28;20023;-84
2021/06/20 04:29:46;;;;;;;7.75;1.80;;;;;;;16.45;65.77;90619.22;4944854;28;20050;-84
2021/06/20 04:32:28;;;;;;;8.75;1.85;;;;;;;16.41;65.76;90618.47;4960040;28;20027;-84
2021/06/20 04:35:07;;;;;;;9.93;2.75;;;;;;;16.49;64.18;90618.09;4961245;28;20030;-84
2021/06/20 04:37:54;;;;;;;11.30;1.90;;;;;;;16.62;63.33;90625.66;4944113;28;20105;-84
2021/06/20 04:40:33;;;;;;;8.90;2.20;;;;;;;16.69;61.52;90621.19;4960706;28;20023;-84
2021/06/20 04:43:22;;;;;;;11.48;2.35;;;;;;;16.77;63.36;90627.25;4960723;28;20022;-84
2021/06/20 04:45:59;;;;;;;13.65;2.70;;;;;;;16.84;61.54;90626.50;4944705;28;20030;-84
2021/06/20 04:48:35;;;;;;;10.43;1.67;;;;;;;16.87;61.45;90631.78;4976431;28;20027;-84
2021/06/20 04:51:10;;;;;;;10.27;1.90;;;;;;;16.81;61.83;90637.78;4962894;28;20064;-84
2021/06/20 04:53:40;;;;;;;9.50;2.60;;;;;;;16.85;62.03;90630.63;4963243;28;20038;-84
2021/06/20 04:56:19;;;;;;;10.80;2.40;;;;;;;16.70;64.06;90637.72;4975134;28;20027;-84
2021/06/20 04:58:54;;;;;;;11.57;2.20;;;;;;;16.77;66.21;90639.66;4944015;28;20027;-84
2021/06/20 05:01:34;;;;;;;9.27;2.65;;;;;;;16.61;68.04;90638.06;4959486;28;20105;-84
2021/06/20 05:04:11;;;;;;;10.00;2.10;;;;;;;16.67;67.60;90628.69;4959195;28;20022;-84
2021/06/20 05:06:55;;;;;;;11.52;2.70;;;;;;;16.85;62.00;90639.28;4962904;28;20022;-84
2021/06/20 05:09:31;;;;;;;19.87;2.97;;;;;;;16.88;62.21;90643.06;4994267;28;20022;-84
2021/06/20 05:12:07;;;;;;;14.85;2.75;;;;;;;17.02;61.07;90632.56;4978768;28;20060;-84
2021/06/20 05:14:47;;;;;;;13.77;2.65;;;;;;;17.07;61.53;90628.81;4978022;28;20030;-84
2021/06/20 05:17:20;;;;;;;15.07;2.50;;;;;;;17.13;60.76;90622.03;4978975;28;20049;-86
2021/06/20 05:19:57;;;;;;;12.45;2.35;;;;;;;17.17;61.16;90626.19;4978015;28;20055;-85
2021/06/20 05:22:24;;;;;;;12.70;2.70;;;;;;;17.30;61.71;90626.56;4992011;28;20498;-84
2021/06/20 05:24:57;;;;;;;26.27;3.20;;;;;;;17.38;60.23;90614.91;4977670;28;20030;-85
2021/06/20 05:27:37;;;;;;;13.95;3.00;;;;;;;17.39;61.08;90619.06;4978424;28;20022;-85
2021/06/20 05:30:15;;;;;;;17.92;3.28;;;;;;;17.69;59.39;90605.47;4978215;28;20476;-84
2021/06/20 05:32:49;;;;;;;24.77;3.85;;;;;;;17.66;60.02;90605.47;4978035;28;20097;-84
2021/06/20 05:35:24;;;;;;;37.40;5.47;;;;;;;17.80;57.98;90607.38;4978081;28;20026;-84
2021/06/20 05:38:02;;;;;;;27.02;3.90;;;;;;;17.83;58.73;90593.44;4977914;28;20151;-85
2021/06/20 05:40:38;;;;;;;31.75;3.92;;;;;;;17.86;58.42;90592.69;4977837;28;20148;-85
2021/06/20 05:43:17;;;;;;;33.90;4.95;;;;;;;18.06;57.93;90600.94;4993766;28;20086;-84
2021/06/20 05:45:55;;;;;;;47.45;5.47;;;;;;;18.09;57.30;90589.59;4978119;28;20026;-84
2021/06/20 05:48:38;;;;;;;39.50;4.85;;;;;;;18.23;56.83;90586.19;4977285;28;20022;-85
2021/06/20 05:51:15;;;;;;;30.37;5.00;;;;;;;18.24;57.46;90582.41;4970035;28;20072;-84
2021/06/20 05:53:47;;;;;;;50.25;6.05;;;;;;;18.28;57.44;90588.44;4973976;28;20159;-84
2021/06/20 05:56:22;;;;;;;45.63;4.63;;;;;;;18.29;57.15;90584.66;4973830;28;20027;-84
2021/06/20 05:58:54;;;;;;;39.80;5.75;;;;;;;18.29;57.29;90574.09;4957962;28;20027;-84
2021/06/20 06:01:31;;;;;;;48.58;5.20;;;;;;;18.35;57.08;90577.84;4957619;28;20050;-84
2021/06/20 06:04:06;;;;;;;52.78;6.40;;;;;;;18.44;56.16;90559.72;4973938;28;20453;-85
2021/06/20 06:06:38;;;;;;;42.20;6.28;;;;;;;18.45;55.96;90563.88;4960685;28;20026;-84
2021/06/20 06:09:12;;;;;;;53.47;6.45;;;;;;;18.49;56.14;90577.78;4977157;28;20029;-85
2021/06/20 06:11:50;;;;;;;56.58;6.80;;;;;;;18.48;56.14;90560.47;4977417;28;20444;-85
2021/06/20 06:14:24;;;;;;;57.35;6.45;;;;;;;18.65;56.04;90569.41;4994063;28;20022;-84
2021/06/20 06:16:54;;;;;;;41.58;6.30;;;;;;;18.70;55.78;90558.47;4994063;28;20026;-85
2021/06/20 06:19:32;;;;;;;58.15;6.43;;;;;;;18.70;56.62;90566.38;4968862;28;20051;-84
2021/06/20 06:22:08;;;;;;;55.10;5.38;;;;;;;18.77;55.49;90570.91;4957743;28;20778;-84
2021/06/20 06:24:53;;;;;;;55.95;6.32;;;;;;;18.77;55.51;90557.69;4958073;28;20404;-84
2021/06/20 06:27:33;;;;;;;47.05;6.18;;;;;;;18.80;55.35;90556.94;4942588;28;20027;-85
2021/06/20 06:30:09;;;;;;;52.38;6.95;;;;;;;18.79;56.93;90550.13;4957524;28;20030;-84
2021/06/20 06:32:39;;;;;;;50.78;5.95;;;;;;;18.90;55.22;90550.06;4941473;28;20026;-86
2021/06/20 06:35:17;;;;;;;55.22;6.15;;;;;;;18.99;55.00;90558.31;4957641;28;20392;-85
2021/06/20 06:37:50;;;;;;;54.85;6.18;;;;;;;19.05;54.73;90552.22;4958123;28;20448;-84
2021/06/20 06:40:28;;;;;;;56.00;6.45;;;;;;;19.23;53.60;90556.63;4941688;28;20027;-84
2021/06/20 06:43:10;;;;;;;52.53;6.22;;;;;;;19.23;54.55;90548.72;4957976;28;20070;-85
2021/06/20 06:45:50;;;;;;;58.67;6.28;;;;;;;19.33;53.56;90545.25;4957934;28;20439;-85
2021/06/20 06:48:25;;;;;;;49.70;7.35;;;;;;;19.44;52.70;90543.25;4960891;28;20027;-85
2021/06/20 06:50:57;;;;;;;52.13;6.05;;;;;;;19.37;54.04;90545.22;4945206;28;20034;-85
2021/06/20 06:53:36;;;;;;;62.10;7.88;;;;;;;19.53;52.19;90540.88;4960741;28;20081;-85
2021/06/20 06:56:14;;;;;;;60.45;7.18;;;;;;;19.55;52.60;90535.97;4959029;28;20023;-84
2021/06/20 06:58:52;;;;;;;63.50;6.47;;;;;;;19.54;54.61;90539.75;4996824;28;20124;-86
2021/06/20 07:01:29;;;;;;;55.38;7.32;;;;;;;19.51;52.48;90529.97;4977763;28;20548;-84
2021/06/20 07:04:02;;;;;;;57.30;8.45;;;;;;;19.66;53.58;90540.44;4942527;28;20026;-85
2021/06/20 07:06:43;;;;;;;61.55;7.50;;;;;;;19.69;53.65;90534.38;4958884;28;20511;-84
2021/06/20 07:09:17;;;;;;;63.05;7.57;;;;;;;19.58;54.49;90545.75;4977218;28;20034;-84
2021/06/20 07:11:57;;;;;;;;;;;;;;;19.74;53.38;90552.44;4976919;28;20023;-86
2021/06/20 07:14:36;;;;;;;67.55;6.15;;;;;;;19.71;54.57;90555.88;4993274;28;19911;-84
2021/06/20 07:17:13;;;;;;;75.00;7.53;;;;;;;19.69;55.17;90553.63;4971518;28;20038;-85
2021/06/20 07:19:47;;;;;;;61.80;6.40;;;;;;;19.59;54.93;90552.53;4972277;28;20052;-85
2021/06/20 07:22:24;;;;;;;64.55;7.25;;;;;;;19.71;53.32;90553.22;4972839;28;20019;-85
2021/06/20 07:24:59;;;;;;;67.40;7.30;;;;;;;19.78;54.55;90561.81;4974318;28;20035;-84
2021/06/20 07:27:37;;;;;;;53.72;6.40;;;;;;;19.69;52.96;90566.09;4973647;28;20027;-84
2021/06/20 07:30:20;;;;;;;62.65;6.65;;;;;;;19.71;52.95;90555.88;4972303;28;20106;-84
2021/06/20 07:32:55;;;;;;;62.20;6.72;;;;;;;19.77;54.06;90556.94;4973028;28;20027;-84
2021/06/20 07:35:32;;;;;;;57.10;7.43;;;;;;;19.85;53.95;90560.25;4973535;28;20034;-85
2021/06/20 07:38:13;;;;;;;66.68;8.32;;;;;;;19.81;57.35;90568.22;4974879;28;20109;-85
2021/06/20 07:40:48;;;;;;;67.35;8.00;;;;;;;19.99;54.90;90571.44;4975388;28;20053;-84
2021/06/20 07:43:25;;;;;;;63.42;7.30;;;;;;;19.97;54.04;90576.38;4975923;28;20037;-84
2021/06/20 07:45:56;;;;;;;68.72;7.97;;;;;;;20.03;53.80;90587.28;4993969;28;20023;-84
2021/06/20 07:48:35;;;;;;;57.35;7.20;;;;;;;20.06;54.34;90584.59;4975153;28;20058;-84
2021/06/20 07:51:12;;;;;;;65.10;7.43;;;;;;;19.98;56.27;90591.09;4975514;28;20030;-85
2021/06/20 07:53:46;;;;;;;62.72;8.07;;;;;;;19.99;53.70;90586.56;4957385;28;20030;-84
2021/06/20 07:56:20;;;;;;;68.88;7.20;;;;;;;19.96;55.16;90580.16;4949886;28;20027;-85
2021/06/20 07:58:56;;;;;;;;;;;;;;;19.88;55.39;90572.69;4985982;28;20030;-85
2021/06/20 08:01:28;;;;;;;58.70;6.85;;;;;;;19.86;58.37;90570.47;4983951;28;20409;-85
2021/06/20 08:03:58;;;;;;;64.60;7.35;;;;;;;19.93;54.75;90580.97;4957626;28;20618;-86
2021/06/20 08:06:32;;;;;;;60.45;8.05;;;;;;;19.88;57.23;90570.81;5033391;23;20083;-85
2021/06/20 08:09:05;;;;;;;;;;;;;;;20.06;57.49;90579.31;4995437;28;20427;-85
2021/06/20 08:11:46;;;;;;;67.82;7.45;;;;;;;20.04;53.85;90567.63;4994145;28;20295;-85
2021/06/20 08:14:20;;;;;;;57.22;6.80;;;;;;;20.29;56.25;90576.03;4990972;28;20030;-85
2021/06/20 08:16:53;;;;;;;;;;;;;;;20.41;53.05;90574.75;4960193;28;20029;-85
2021/06/20 08:19:29;;;;;;;58.08;6.65;;;;;;;20.51;54.19;90568.63;4974949;28;20375;-86
2021/06/20 08:22:04;;;;;;;61.78;7.03;;;;;;;20.76;55.19;90565.66;4958062;28;20514;-86
2021/06/20 08:24:43;;;;;;;68.20;6.65;;;;;;;21.03;53.12;90556.25;4962826;28;20022;-86
2021/06/20 08:27:22;;;;;;;57.80;7.53;;;;;;;21.07;51.73;90559.56;4978131;28;20057;-86
2021/06/20 08:30:00;;;;;;;66.80;7.15;;;;;;;21.08;51.81;90553.13;4961907;28;20027;-85
2021/06/20 08:32:36;;;;;;;61.00;7.38;;;;;;;21.11;53.49;90539.09;4993949;28;20026;-86
2021/06/20 08:35:16;;;;;;;61.05;7.32;;;;;;;21.19;52.65;90541.22;4978868;28;20034;-86
2021/06/20 08:37:50;;;;;;;67.13;6.68;;;;;;;21.53;53.79;90545.63;4979076;28;20022;-86
2021/06/20 08:40:31;;;;;;;48.45;6.95;;;;;;;21.61;54.69;90551.56;4999613;28;20084;-85
2021/06/20 08:43:12;;;;;;;59.38;6.72;;;;;;;21.73;51.21;90553.63;4981856;28;20120;-86
2021/06/20 08:45:52;;;;;;;66.07;6.93;;;;;;;21.43;48.70;90549.22;4982697;28;20057;-86
2021/06/20 08:48:23;;;;;;;62.05;8.38;;;;;;;21.60;48.92;90545.53;4981993;28;20026;-86
2021/06/20 08:50:58;;;;;;;56.85;7.13;;;;;;;21.64;48.88;90550.75;4961460;28;20109;-87
2021/06/20 08:53:34;;;;;;;69.50;7.20;;;;;;;21.70;51.82;90543.84;4963015;28;20040;-87
2021/06/20 08:56:02;;;;;;;53.40;7.55;;;;;;;21.66;52.67;90548.44;4961244;28;20030;-87
2021/06/20 08:58:36;;;;;;;43.25;6.07;;;;;;;21.61;54.58;90557.63;4961379;28;20482;-87
2021/06/20 09:01:11;;;;;;;48.60;5.70;;;;;;;21.44;54.96;90532.88;4961522;28;20483;-87
2021/06/20 09:03:42;;;;;;;42.95;5.05;;;;;;;21.68;56.74;90543.50;4962329;28;20058;-87
2021/06/20 09:06:24;;;;;;;38.70;5.55;;;;;;;21.67;56.55;90529.50;4992348;28;20022;-85
2021/06/20 09:09:01;;;;;;;43.63;5.90;;;;;;;21.83;56.19;90528.81;4996409;28;20034;-87
2021/06/20 09:11:45;;;;;;;40.95;5.53;;;;;;;21.85;54.76;90521.22;4980803;28;20025;-88
2021/06/20 09:14:22;;;;;;;34.70;5.50;;;;;;;21.85;54.97;90513.25;4976330;28;20037;-87
2021/06/20 09:17:03;;;;;;;33.15;5.32;;;;;;;21.61;56.16;90515.19;4961614;28;20492;-87
2021/06/20 09:19:44;;;;;;;37.28;5.35;;;;;;;21.62;56.96;90521.25;4961527;28;20113;-87
2021/06/20 09:22:10;;;;;;;41.70;5.57;;;;;;;21.65;57.32;90515.13;4961490;28;20022;-87
2021/06/20 09:24:44;;;;;;;39.20;5.38;;;;;;;21.48;58.50;90501.78;4961080;28;20022;-88
2021/06/20 09:27:19;;;;;;;36.42;6.28;;;;;;;21.55;57.76;90506.19;4993328;28;20034;-87
2021/06/20 09:29:51;;;;;;;31.77;5.05;;;;;;;21.83;56.32;90502.31;4961810;28;20050;-87
2021/06/20 09:32:32;;;;;;;28.67;4.72;;;;;;;21.91;57.12;90501.03;4960815;28;20026;-88
2021/06/20 09:35:09;;;;;;;39.83;6.07;;;;;;;21.70;56.66;90498.78;4977042;28;20205;-87
2021/06/20 09:37:45;;;;;;;33.90;5.60;;;;;;;21.75;56.86;90493.00;4971264;28;20040;-88
2021/06/20 09:40:20;;;;;;;25.15;5.18;;;;;;;22.01;58.08;90488.72;4966159;28;20022;-87
2021/06/20 09:43:00;;;;;;;40.45;5.90;;;;;;;22.16;55.62;90505.16;4978048;28;20029;-88
2021/06/20 09:45:38;;;;;;;45.30;6.05;;;;;;;22.14;54.39;90492.28;4945889;28;20125;-88
2021/06/20 09:48:29;;;;;;;40.92;5.70;;;;;;;22.29;56.27;90486.69;4979991;28;20022;-88
2021/06/20 09:51:01;;;;;;;50.63;5.97;;;;;;;22.42;54.17;90490.97;4961449;28;20520;-87
2021/06/20 09:53:40;;;;;;;48.95;6.50;;;;;;;22.34;53.27;90484.31;4960642;28;20037;-87
2021/06/20 09:56:21;;;;;;;55.45;6.47;;;;;;;22.34;53.19;90484.31;4961493;28;20031;-87
2021/06/20 09:59:04;;;;;;;41.22;6.03;;;;;;;22.37;53.15;90488.81;4992151;28;20030;-87
2021/06/20 10:01:43;;;;;;;41.25;6.22;;;;;;;22.24;53.22;90476.56;4976360;28;20074;-88
2021/06/20 10:04:11;;;;;;;44.17;6.45;;;;;;;22.18;54.03;90468.31;4957382;28;20025;-87
2021/06/20 10:06:42;;;;;;;44.08;6.60;;;;;;;22.11;52.98;90468.44;4975414;28;20052;-86
2021/06/20 10:09:18;;;;;;;46.80;6.40;;;;;;;22.27;53.21;90463.22;4979854;28;20400;-88
2021/06/20 10:11:49;;;;;;;55.78;6.82;;;;;;;22.12;52.17;90461.97;5012953;28;20027;-88
2021/06/20 10:14:15;;;;;;;48.97;6.32;;;;;;;22.33;52.77;90468.78;5017073;28;20670;-88
2021/06/20 10:16:48;;;;;;;66.03;7.35;;;;;;;22.37;51.71;90456.19;4983552;28;20010;-87
2021/06/20 10:19:22;;;;;;;37.47;5.75;;;;;;;22.24;52.08;90466.69;5002907;28;20033;-88
2021/06/20 10:22:11;;;;;;;56.30;6.93;;;;;;;22.34;53.61;90463.06;4964541;28;20037;-87
2021/06/20 10:24:51;;;;;;;51.67;5.82;;;;;;;22.32;54.90;90465.38;4991801;28;20504;-87
2021/06/20 10:27:33;;;;;;;41.78;6.28;;;;;;;22.24;53.30;90465.94;4976031;28;20484;-87
2021/06/20 10:30:05;;;;;;;38.00;6.13;;;;;;;22.28;52.95;90459.41;4959995;28;20037;-87
2021/06/20 10:32:47;;;;;;;50.50;6.32;;;;;;;21.86;53.00;90440.50;4997689;28;20037;-87
2021/06/20 10:35:21;;;;;;;48.38;6.55;;;;;;;21.87;53.47;90434.06;5010634;28;20025;-87
2021/06/20 10:37:56;;;;;;;46.17;6.07;;;;;;;21.89;53.00;90447.63;4978707;28;20041;-87
2021/06/20 10:40:29;;;;;;;47.85;6.20;;;;;;;21.92;53.06;90451.38;4978692;28;20267;-87
2021/06/20 10:43:22;;;;;;;45.22;6.13;;;;;;;21.87;51.76;90449.97;4995671;28;20021;-87
2021/06/20 10:45:49;;;;;;;50.75;6.38;;;;;;;21.85;52.22;90449.63;4981100;28;20030;-87
2021/06/20 10:48:22;;;;;;;47.17;5.43;;;;;;;22.22;53.30;90449.69;4978631;28;20122;-87
2021/06/20 10:50:55;;;;;;;39.70;5.85;;;;;;;22.40;53.37;90442.84;4977979;28;20076;-87
2021/06/20 10:53:28;;;;;;;50.13;6.18;;;;;;;22.62;53.13;90450.34;5002350;28;20697;-87
2021/06/20 10:55:59;;;;;;;45.88;6.32;;;;;;;22.68;52.78;90443.38;4984496;28;20026;-87
2021/06/20 10:58:40;;;;;;;46.15;5.53;;;;;;;22.80;55.31;90434.03;4972197;28;20503;-87
2021/06/20 11:01:18;;;;;;;36.88;6.03;;;;;;;22.91;53.20;90439.81;4987533;28;20037;-87
2021/06/20 11:04:03;;;;;;;48.30;6.60;;;;;;;22.78;52.15;90436.34;5021124;28;20102;-86
2021/06/20 11:06:42;;;;;;;40.65;6.47;;;;;;;22.81;51.68;90432.84;5020387;28;20030;-86
2021/06/20 11:09:17;;;;;;;52.80;6.13;;;;;;;23.16;51.96;90436.59;4980067;28;20022;-87
2021/06/20 11:11:57;;;;;;;49.53;6.75;;;;;;;23.21;52.28;90436.09;4995581;28;20029;-85
2021/06/20 11:14:43;;;;;;;41.65;5.82;;;;;;;23.38;51.76;90426.94;4994872;28;20025;-85
2021/06/20 11:17:18;;;;;;;44.40;5.68;;;;;;;23.36;52.52;90423.97;4981028;28;20447;-83
2021/06/20 11:20:00;;;;;;;38.90;5.45;;;;;;;23.53;51.56;90421.25;4993871;28;20400;-86
2021/06/20 11:22:27;;;;;;;41.28;5.63;;;;;;;23.42;51.27;90407.47;4974266;28;20050;-88
2021/06/20 11:25:07;;;;;;;31.80;5.57;;;;;;;23.61;53.12;90415.34;4970297;28;20017;-87
2021/06/20 11:27:42;;;;;;;39.03;5.68;;;;;;;23.52;51.37;90401.16;4992969;28;20030;-87
2021/06/20 11:30:21;;;;;;;49.20;6.30;;;;;;;23.54;52.29;90399.56;4993950;28;20083;-85
2021/06/20 11:32:59;;;;;;;46.03;5.78;;;;;;;23.69;53.02;90391.25;4994439;28;20400;-86
2021/06/20 11:35:35;;;;;;;55.30;7.13;;;;;;;23.75;51.44;90378.91;4994903;28;20643;-87
2021/06/20 11:38:12;;;;;;;40.08;6.82;;;;;;;23.60;51.58;90381.94;4994375;28;20022;-87
2021/06/20 11:40:52;;;;;;;51.40;7.43;;;;;;;23.53;51.15;90376.81;4994583;28;20034;-86
2021/06/20 11:43:31;;;;;;;54.70;6.55;;;;;;;23.23;51.13;90354.03;4995651;28;20026;-86
2021/06/20 11:46:17;;;;;;;46.75;6.38;;;;;;;23.28;52.07;90364.16;4994755;28;20396;-87
2021/06/20 11:49:07;;;;;;;57.00;7.55;;;;;;;23.10;51.04;90358.53;4995571;28;20026;-86
2021/06/20 11:51:54;;;;;;;46.30;5.55;;;;;;;23.05;52.39;90359.06;4993590;28;20029;-86
2021/06/20 11:54:38;;;;;;;51.60;7.03;;;;;;;23.08;53.03;90360.88;4995463;28;20030;-87
2021/06/20 11:57:17;;;;;;;48.47;6.00;;;;;;;23.23;51.54;90358.63;4995292;28;20030;-87
2021/06/20 11:59:50;;;;;;;45.03;7.18;;;;;;;23.26;52.04;90352.47;4982500;28;20117;-84
2021/06/20 12:02:29;;;;;;;53.55;6.10;;;;;;;23.28;51.29;90350.84;4982049;28;20029;-86
2021/06/20 12:05:06;;;;;;;43.25;5.72;;;;;;;23.38;51.66;90347.19;4966187;28;20033;-87
2021/06/20 12:07:44;;;;;;;38.47;5.72;;;;;;;23.73;52.48;90342.09;4982141;28;20504;-86
2021/06/20 12:10:17;;;;;;;47.22;7.15;;;;;;;23.97;48.08;90341.81;4965318;28;20030;-86
2021/06/20 12:13:08;;;;;;;49.78;7.13;;;;;;;23.90;50.12;90328.72;4982177;28;20411;-86